createdAt,value
2019-04-11T00:00:56.003Z,21.50
2019-04-11T00:03:25.532Z,22.07
2019-04-11T00:05:55.136Z,22.37
2019-04-11T00:08:24.626Z,23.27
2019-04-11T00:10:54.161Z,32.13
2019-04-11T00:13:26.734Z,29.57
2019-04-11T00:15:55.024Z,29.97
2019-04-11T00:18:25.024Z,36.93
2019-04-11T00:20:54.799Z,40.20
2019-04-11T00:23:24.494Z,39.37
2019-04-11T00:25:54.265Z,45.80
2019-04-11T00:28:23.800Z,51.83
2019-04-11T00:30:54.574Z,50.03
2019-04-11T00:33:24.787Z,48.50
2019-04-11T00:35:55.650Z,49.53
2019-04-11T00:38:25.672Z,49.87
2019-04-11T00:40:55.655Z,52.50
2019-04-11T00:43:33.601Z,51.43
2019-04-11T00:45:56.794Z,54.60
2019-04-11T00:48:26.176Z,54.03
2019-04-11T00:50:55.951Z,54.00
2019-04-11T00:53:25.890Z,52.60
2019-04-11T00:55:55.789Z,51.83
2019-04-11T00:58:25.733Z,53.90
2019-04-11T01:00:55.550Z,54.63
2019-04-11T01:03:26.422Z,56.33
2019-04-11T01:05:56.699Z,56.50
2019-04-11T01:08:27.373Z,56.07
2019-04-11T01:10:57.416Z,53.50
2019-04-11T01:13:39.228Z,55.80
2019-04-11T01:16:04.971Z,59.47
2019-04-11T01:18:34.626Z,61.93
2019-04-11T01:21:04.416Z,59.53
2019-04-11T01:23:35.071Z,67.40
2019-04-11T01:26:05.282Z,68.47
2019-04-11T01:28:34.871Z,60.70
2019-04-11T01:31:09.607Z,65.23
2019-04-11T01:33:40.158Z,68.27
2019-04-11T01:36:11.218Z,68.77
2019-04-11T01:38:46.332Z,62.80
2019-04-11T01:41:16.759Z,68.70
2019-04-11T01:43:55.343Z,66.23
2019-04-11T01:46:18.106Z,67.00
2019-04-11T01:48:55.628Z,67.07
2019-04-11T01:51:25.441Z,65.07
2019-04-11T01:53:55.448Z,67.20
2019-04-11T01:56:25.243Z,60.93
2019-04-11T01:58:55.265Z,60.43
2019-04-11T02:01:56.933Z,60.07
2019-04-11T02:04:37.147Z,59.13
2019-04-11T02:07:07.892Z,58.50
2019-04-11T02:09:38.008Z,56.20
2019-04-11T02:12:07.860Z,54.37
2019-04-11T02:14:37.545Z,49.37
2019-04-11T02:17:08.468Z,51.90
2019-04-11T02:19:38.522Z,51.50
2019-04-11T02:22:27.060Z,51.10
2019-04-11T02:25:06.039Z,51.67
2019-04-11T02:27:36.074Z,48.83
2019-04-11T02:30:08.580Z,48.37
2019-04-11T02:32:37.795Z,46.57
2019-04-11T02:35:08.527Z,46.63
2019-04-11T02:37:39.787Z,44.67
2019-04-11T02:40:11.148Z,45.40
2019-04-11T02:42:41.260Z,43.13
2019-04-11T02:45:25.005Z,43.50
2019-04-11T02:47:46.186Z,42.03
2019-04-11T02:50:17.207Z,42.40
2019-04-11T02:52:47.375Z,42.70
2019-04-11T02:55:19.072Z,43.07
2019-04-11T02:57:50.176Z,40.67
2019-04-11T03:00:20.866Z,41.07
2019-04-11T03:02:53.097Z,44.33
2019-04-11T03:05:22.332Z,43.00
2019-04-11T03:07:51.944Z,39.50
2019-04-11T03:10:21.682Z,41.60
2019-04-11T03:12:52.681Z,41.63
2019-04-11T03:15:37.568Z,41.33
2019-04-11T03:17:59.100Z,42.10
2019-04-11T03:20:33.810Z,41.47
2019-04-11T03:23:03.982Z,40.47
2019-04-11T03:25:30.480Z,41.90
2019-04-11T03:28:01.955Z,43.60
2019-04-11T03:30:51.922Z,41.30
2019-04-11T03:36:24.537Z,41.67
2019-04-11T03:38:31.395Z,39.03
2019-04-11T03:40:57.063Z,43.33
2019-04-11T03:43:24.201Z,40.33
2019-04-11T03:45:58.979Z,43.60
2019-04-11T03:48:29.034Z,40.17
2019-04-11T03:50:45.210Z,40.03
2019-04-11T03:53:17.283Z,38.97
2019-04-11T03:55:47.654Z,40.77
2019-04-11T03:58:19.588Z,41.30
2019-04-11T04:00:50.591Z,41.27
2019-04-11T04:03:22.343Z,39.00
2019-04-11T04:05:52.837Z,38.47
2019-04-11T04:08:24.793Z,37.83
2019-04-11T04:11:15.260Z,38.67
2019-04-11T04:14:04.424Z,35.57
2019-04-11T04:16:47.882Z,41.00
2019-04-11T04:19:32.842Z,38.17
2019-04-11T04:22:09.336Z,38.63
2019-04-11T04:24:40.701Z,37.33
2019-04-11T04:27:10.790Z,37.03
2019-04-11T04:29:41.367Z,36.03
2019-04-11T04:32:12.050Z,34.43
2019-04-11T04:34:42.256Z,34.50
2019-04-11T04:37:14.085Z,34.97
2019-04-11T04:39:45.678Z,31.53
2019-04-11T04:42:24.122Z,32.93
2019-04-11T04:44:48.873Z,32.47
2019-04-11T04:47:26.446Z,32.20
2019-04-11T04:49:49.819Z,30.90
2019-04-11T04:52:20.671Z,32.23
2019-04-11T04:54:50.455Z,30.47
2019-04-11T04:57:20.808Z,30.33
2019-04-11T04:59:50.586Z,28.97
2019-04-11T05:02:20.641Z,28.93
2019-04-11T05:04:52.003Z,27.80
2019-04-11T05:07:21.691Z,27.23
2019-04-11T05:09:51.362Z,27.83
2019-04-11T05:12:22.461Z,28.17
2019-04-11T05:14:54.024Z,27.50
2019-04-11T05:17:25.583Z,28.03
2019-04-11T05:19:54.812Z,32.60
2019-04-11T05:22:24.721Z,30.87
2019-04-11T05:24:55.896Z,29.37
2019-04-11T05:27:25.697Z,28.80
2019-04-11T05:29:55.307Z,35.23
2019-04-11T05:32:27.154Z,32.07
2019-04-11T05:34:56.107Z,34.67
2019-04-11T05:37:25.664Z,34.77
2019-04-11T05:39:56.506Z,34.70
2019-04-11T05:42:27.137Z,35.80
2019-04-11T05:44:57.009Z,32.67
2019-04-11T05:47:27.631Z,33.17
2019-04-11T05:50:10.100Z,29.50
2019-04-11T05:52:36.826Z,31.67
2019-04-11T05:55:10.591Z,30.63
2019-04-11T05:57:43.053Z,31.73
2019-04-11T06:00:21.475Z,29.60
2019-04-11T06:02:55.589Z,25.87
2019-04-11T06:05:33.003Z,26.27
2019-04-11T06:08:05.425Z,25.97
2019-04-11T06:10:45.085Z,24.87
2019-04-11T06:13:21.153Z,23.53
2019-04-11T06:16:06.350Z,22.87
2019-04-11T06:18:57.158Z,22.43
2019-04-11T06:21:35.984Z,21.67
2019-04-11T06:24:25.923Z,18.80
2019-04-11T06:27:09.339Z,19.83
2019-04-11T06:29:51.470Z,19.27
2019-04-11T06:32:49.539Z,23.27
2019-04-11T06:35:40.928Z,23.33
2019-04-11T06:38:28.329Z,26.60
2019-04-11T06:41:04.104Z,45.77
2019-04-11T06:43:58.913Z,98.63
2019-04-11T06:46:53.845Z,40.83
2019-04-11T06:49:36.369Z,20.63
2019-04-11T06:52:08.468Z,17.33
2019-04-11T06:54:56.182Z,18.00
2019-04-11T06:57:26.745Z,16.30
2019-04-11T06:59:56.674Z,12.90
2019-04-11T07:02:27.963Z,12.33
2019-04-11T07:05:00.798Z,12.43
2019-04-11T07:07:34.017Z,11.93
2019-04-11T07:10:06.379Z,13.80
2019-04-11T07:12:55.244Z,14.67
2019-04-11T07:15:44.206Z,13.57
2019-04-11T07:18:32.005Z,13.73
2019-04-11T07:21:06.739Z,13.40
2019-04-11T07:23:53.921Z,16.17
2019-04-11T07:26:52.151Z,14.27
2019-04-11T07:29:50.740Z,13.20
2019-04-11T07:32:23.393Z,16.10
2019-04-11T07:35:11.005Z,17.03
2019-04-11T07:37:47.144Z,14.53
2019-04-11T07:40:35.350Z,12.33
2019-04-11T07:43:31.193Z,15.00
2019-04-11T07:46:22.811Z,19.03
2019-04-11T07:48:54.879Z,14.47
2019-04-11T07:51:43.033Z,12.70
2019-04-11T07:54:23.581Z,12.10
2019-04-11T07:56:55.851Z,11.57
2019-04-11T07:59:41.803Z,10.63
2019-04-11T08:02:31.266Z,11.60
2019-04-11T08:05:23.618Z,11.50
2019-04-11T08:08:11.738Z,10.93
2019-04-11T08:10:45.746Z,10.77
2019-04-11T08:13:28.864Z,9.03
2019-04-11T08:16:32.948Z,8.67
2019-04-11T08:19:24.821Z,6.83
2019-04-11T08:22:00.875Z,7.00
2019-04-11T08:24:36.619Z,8.90
2019-04-11T08:27:25.353Z,7.73
2019-04-11T08:29:58.249Z,5.70
2019-04-11T08:32:44.234Z,5.57
2019-04-11T08:35:42.683Z,7.50
2019-04-11T08:38:18.499Z,5.57
2019-04-11T08:41:07.379Z,7.80
2019-04-11T08:43:37.504Z,5.33
2019-04-11T08:46:14.914Z,7.43
2019-04-11T08:48:48.983Z,4.80
2019-04-11T08:51:19.219Z,4.90
2019-04-11T08:54:07.600Z,4.83
2019-04-11T08:56:39.054Z,4.17
2019-04-11T08:59:29.909Z,3.13
2019-04-11T09:02:00.398Z,4.30
2019-04-11T09:05:13.623Z,3.97
2019-04-11T09:07:45.660Z,4.47
2019-04-11T09:10:33.812Z,3.30
2019-04-11T09:13:27.077Z,2.90
2019-04-11T09:16:18.822Z,3.37
2019-04-11T09:18:48.647Z,2.93
2019-04-11T09:21:36.196Z,4.40
2019-04-11T09:24:12.401Z,4.67
2019-04-11T09:27:10.313Z,3.60
2019-04-11T09:29:42.573Z,6.40
2019-04-11T09:32:36.771Z,7.53
2019-04-11T09:35:14.434Z,7.83
2019-04-11T09:37:46.226Z,7.27
2019-04-11T09:40:39.511Z,7.50
2019-04-11T09:43:20.519Z,7.00
2019-04-11T09:45:59.752Z,7.10
2019-04-11T09:48:44.372Z,6.70
2019-04-11T09:51:40.260Z,6.63
2019-04-11T09:54:17.604Z,5.00
2019-04-11T09:57:06.448Z,5.63
2019-04-11T09:59:58.221Z,5.73
2019-04-11T10:03:02.137Z,6.20
2019-04-11T10:05:40.550Z,6.63
2019-04-11T10:08:27.602Z,6.07
2019-04-11T10:11:15.568Z,6.80
2019-04-11T10:14:13.619Z,5.87
2019-04-11T10:17:01.137Z,7.53
2019-04-11T10:19:46.293Z,6.03
2019-04-11T10:22:38.353Z,5.40
2019-04-11T10:25:35.045Z,6.47
2019-04-11T10:28:30.398Z,6.43
2019-04-11T10:31:18.307Z,6.00
2019-04-11T10:34:06.211Z,8.13
2019-04-11T10:36:53.970Z,6.73
2019-04-11T10:39:55.028Z,37.43
2019-04-11T10:42:26.604Z,4.70
2019-04-11T10:45:24.955Z,3.63
2019-04-11T10:48:06.472Z,4.10
2019-04-11T10:51:08.751Z,3.87
2019-04-11T10:53:39.461Z,3.93
2019-04-11T10:56:36.629Z,3.67
2019-04-11T10:59:07.102Z,3.33
2019-04-11T11:02:08.650Z,3.10
2019-04-11T11:04:45.114Z,2.87
2019-04-11T11:07:20.975Z,3.23
2019-04-11T11:10:05.234Z,3.00
2019-04-11T11:12:53.787Z,2.93
2019-04-11T11:15:27.489Z,3.57
2019-04-11T11:18:48.043Z,2.77
2019-04-11T11:20:55.222Z,2.73
2019-04-11T11:23:40.885Z,4.03
2019-04-11T11:26:29.746Z,2.57
2019-04-11T11:29:18.932Z,3.90
2019-04-11T11:32:00.931Z,3.23
2019-04-11T11:34:37.036Z,1.83
2019-04-11T11:37:24.933Z,1.43
2019-04-11T11:40:16.604Z,1.30
2019-04-11T11:43:03.117Z,0.90
2019-04-11T11:45:51.405Z,1.03
2019-04-11T11:48:37.446Z,1.50
2019-04-11T11:51:14.664Z,1.27
2019-04-11T11:54:19.698Z,2.90
2019-04-11T11:56:50.614Z,1.70
2019-04-11T11:59:27.100Z,2.67
2019-04-11T12:02:10.726Z,6.63
2019-04-11T12:04:57.714Z,1.43
2019-04-11T12:07:36.222Z,1.47
2019-04-11T12:10:35.496Z,0.90
2019-04-11T12:13:39.442Z,1.20
2019-04-11T12:16:21.965Z,1.03
2019-04-11T12:19:15.839Z,1.33
2019-04-11T12:21:46.358Z,2.60
2019-04-11T12:24:34.441Z,1.97
2019-04-11T12:27:21.895Z,2.40
2019-04-11T12:30:10.757Z,3.43
2019-04-11T12:32:48.696Z,2.93
2019-04-11T12:35:40.162Z,2.13
2019-04-11T12:38:20.409Z,2.27
2019-04-11T12:41:08.489Z,4.17
2019-04-11T12:43:55.673Z,3.57
2019-04-11T12:46:43.013Z,3.33
2019-04-11T12:49:26.723Z,3.30
2019-04-11T12:52:29.248Z,3.57
2019-04-11T12:54:58.845Z,4.17
2019-04-11T12:57:46.192Z,2.50
2019-04-11T13:00:37.811Z,2.43
2019-04-11T13:03:25.131Z,2.70
2019-04-11T13:05:58.835Z,4.33
2019-04-11T13:08:53.839Z,2.27
2019-04-11T13:11:23.352Z,4.07
2019-04-11T13:14:12.815Z,3.43
2019-04-11T13:16:43.405Z,2.30
2019-04-11T13:19:38.280Z,2.00
2019-04-11T13:22:12.507Z,2.63
2019-04-11T13:24:59.905Z,1.83
2019-04-11T13:27:51.428Z,1.50
2019-04-11T13:30:38.579Z,3.70
2019-04-11T13:33:12.813Z,2.23
2019-04-11T13:36:04.632Z,2.57
2019-04-11T13:38:37.834Z,2.60
2019-04-11T13:41:29.275Z,3.40
2019-04-11T13:44:14.221Z,1.20
2019-04-11T13:47:02.613Z,1.00
2019-04-11T13:49:53.904Z,1.90
2019-04-11T13:52:42.494Z,3.73
2019-04-11T13:55:31.854Z,3.07
2019-04-11T13:58:19.394Z,2.53
2019-04-11T14:00:53.225Z,2.23
2019-04-11T14:03:44.351Z,3.13
2019-04-11T14:06:37.927Z,4.97
2019-04-11T14:09:30.738Z,2.70
2019-04-11T14:12:04.783Z,1.90
2019-04-11T14:14:38.424Z,1.70
2019-04-11T14:17:25.806Z,2.30
2019-04-11T14:20:13.445Z,2.10
2019-04-11T14:23:03.420Z,2.50
2019-04-11T14:25:52.138Z,3.63
2019-04-11T14:28:22.014Z,3.83
2019-04-11T14:31:16.564Z,2.30
2019-04-11T14:33:48.353Z,2.60
2019-04-11T14:36:37.045Z,4.40
2019-04-11T14:39:08.334Z,7.10
2019-04-11T14:41:59.671Z,4.63
2019-04-11T14:44:28.644Z,2.20
2019-04-11T14:47:15.972Z,9.57
2019-04-11T14:49:47.810Z,3.70
2019-04-11T14:52:39.383Z,2.87
2019-04-11T14:55:08.880Z,5.87
2019-04-11T14:57:46.916Z,3.20
2019-04-11T15:00:36.925Z,7.73
2019-04-11T15:03:28.670Z,4.93
2019-04-11T15:06:02.766Z,4.10
2019-04-11T15:08:41.022Z,3.60
2019-04-11T15:11:41.813Z,2.50
2019-04-11T15:14:22.095Z,2.10
2019-04-11T15:17:10.846Z,2.57
2019-04-11T15:19:41.078Z,1.97
2019-04-11T15:22:23.971Z,2.70
2019-04-11T15:24:56.577Z,1.63
2019-04-11T15:27:41.310Z,1.83
2019-04-11T15:30:16.711Z,1.80
2019-04-11T15:33:13.272Z,2.00
2019-04-11T15:35:43.548Z,1.80
2019-04-11T15:38:36.654Z,1.70
2019-04-11T15:41:07.481Z,2.03
2019-04-11T15:43:55.016Z,2.20
2019-04-11T15:46:33.033Z,2.63
2019-04-11T15:49:39.549Z,2.13
2019-04-11T15:52:15.274Z,3.00
2019-04-11T15:55:19.484Z,1.90
2019-04-11T15:57:52.665Z,3.13
2019-04-11T16:00:44.545Z,1.60
2019-04-11T16:03:16.041Z,1.70
2019-04-11T16:06:07.421Z,1.70
2019-04-11T16:08:48.548Z,2.80
2019-04-11T16:11:52.644Z,1.63
2019-04-11T16:14:28.305Z,2.23
2019-04-11T16:17:13.412Z,4.10
2019-04-11T16:19:47.841Z,2.03
2019-04-11T16:22:36.274Z,1.57
2019-04-11T16:25:15.364Z,1.80
2019-04-11T16:28:07.746Z,2.20
2019-04-11T16:30:51.871Z,3.63
2019-04-11T16:33:40.542Z,4.17
2019-04-11T16:36:17.179Z,3.23
2019-04-11T16:39:05.860Z,6.30
2019-04-11T16:41:59.775Z,5.67
2019-04-11T16:44:39.540Z,3.93
2019-04-11T16:47:21.137Z,4.43
2019-04-11T16:49:52.328Z,2.10
2019-04-11T16:52:22.135Z,2.60
2019-04-11T16:54:51.538Z,8.00
2019-04-11T16:57:21.229Z,2.90
2019-04-11T16:59:51.232Z,3.60
2019-04-11T17:02:21.812Z,3.50
2019-04-11T17:04:55.578Z,3.07
2019-04-11T17:07:36.695Z,12.63
2019-04-11T17:10:08.038Z,9.07
2019-04-11T17:12:37.702Z,2.00
2019-04-11T17:15:08.345Z,2.07
2019-04-11T17:17:37.986Z,3.93
2019-04-11T17:20:07.995Z,1.83
2019-04-11T17:22:37.442Z,2.83
2019-04-11T17:25:07.609Z,1.40
2019-04-11T17:27:37.206Z,1.60
2019-04-11T17:30:07.904Z,2.60
2019-04-11T17:32:37.467Z,1.50
2019-04-11T17:35:07.171Z,2.00
2019-04-11T17:37:36.880Z,1.50
2019-04-11T17:40:07.584Z,1.90
2019-04-11T17:42:37.986Z,1.80
2019-04-11T17:45:08.479Z,1.70
2019-04-11T17:47:37.938Z,2.63
2019-04-11T17:50:08.482Z,1.67
2019-04-11T17:52:38.251Z,1.40
2019-04-11T17:55:08.243Z,1.50
2019-04-11T17:57:38.321Z,1.70
2019-04-11T18:00:10.377Z,2.27
2019-04-11T18:02:41.482Z,3.17
2019-04-11T18:05:11.303Z,1.50
2019-04-11T18:07:41.532Z,2.40
2019-04-11T18:10:11.373Z,3.30
2019-04-11T18:12:41.111Z,4.10
2019-04-11T18:15:11.898Z,2.50
2019-04-11T18:17:41.342Z,4.63
2019-04-11T18:20:11.179Z,2.87
2019-04-11T18:22:40.739Z,2.50
2019-04-11T18:25:10.805Z,2.33
2019-04-11T18:27:40.566Z,4.97
2019-04-11T18:30:11.938Z,7.73
2019-04-11T18:32:41.949Z,2.67
2019-04-11T18:35:11.873Z,3.23
2019-04-11T18:37:41.551Z,3.60
2019-04-11T18:40:11.352Z,4.60
2019-04-11T18:42:42.672Z,3.93
2019-04-11T18:45:12.830Z,1.83
2019-04-11T18:47:42.986Z,2.73
2019-04-11T18:50:12.789Z,2.57
2019-04-11T18:52:42.483Z,2.00
2019-04-11T18:55:12.669Z,3.97
2019-04-11T18:57:42.471Z,2.97
2019-04-11T19:00:16.824Z,3.10
2019-04-11T19:02:46.772Z,3.67
2019-04-11T19:05:28.259Z,4.43
2019-04-11T19:07:48.409Z,1.60
2019-04-11T19:10:18.277Z,2.27
2019-04-11T19:12:48.000Z,2.00
2019-04-11T19:15:18.163Z,1.80
2019-04-11T19:17:47.700Z,1.50
2019-04-11T19:20:19.726Z,2.00
2019-04-11T19:22:49.444Z,1.30
2019-04-11T19:25:18.988Z,1.30
2019-04-11T19:27:53.278Z,1.20
2019-04-11T19:30:19.968Z,2.33
2019-04-11T19:32:49.765Z,1.30
2019-04-11T19:35:19.534Z,1.47
2019-04-11T19:37:49.002Z,1.27
2019-04-11T19:40:18.558Z,4.50
2019-04-11T19:42:49.243Z,1.30
2019-04-11T19:45:20.162Z,1.30
2019-04-11T19:47:52.223Z,1.33
2019-04-11T19:50:21.141Z,1.30
2019-04-11T19:52:50.589Z,1.73
2019-04-11T19:55:48.287Z,2.53
2019-04-11T19:58:19.655Z,1.10
2019-04-11T20:00:53.050Z,1.80
2019-04-11T20:03:21.839Z,1.10
2019-04-11T20:05:51.955Z,1.23
2019-04-11T20:08:21.839Z,1.10
2019-04-11T20:10:51.609Z,2.07
2019-04-11T20:13:21.188Z,1.47
2019-04-11T20:15:50.752Z,1.50
2019-04-11T20:18:22.576Z,1.10
2019-04-11T20:20:52.303Z,1.23
2019-04-11T20:23:21.837Z,1.50
2019-04-11T20:25:51.491Z,1.10
2019-04-11T20:28:21.092Z,2.50
2019-04-11T20:30:50.572Z,4.17
2019-04-11T20:33:27.019Z,4.50
2019-04-11T20:35:51.438Z,5.07
2019-04-11T20:38:20.893Z,4.10
2019-04-11T20:40:52.508Z,4.50
2019-04-11T20:43:24.773Z,3.97
2019-04-11T20:45:53.695Z,6.10
2019-04-11T20:48:23.246Z,4.33
2019-04-11T20:50:52.772Z,4.03
2019-04-11T20:53:22.424Z,5.37
2019-04-11T20:55:52.193Z,25.00
2019-04-11T20:58:27.203Z,30.30
2019-04-11T21:00:55.665Z,26.20
2019-04-11T21:03:24.279Z,19.77
2019-04-11T21:05:53.675Z,12.40
2019-04-11T21:08:23.402Z,22.57
2019-04-11T21:10:52.794Z,31.13
2019-04-11T21:13:22.583Z,24.47
2019-04-11T21:15:51.981Z,16.47
2019-04-11T21:18:21.523Z,9.37
2019-04-11T21:20:55.016Z,7.87
2019-04-11T21:23:24.607Z,11.50
2019-04-11T21:25:53.712Z,11.53
2019-04-11T21:28:23.123Z,13.20
2019-04-11T21:30:52.632Z,7.13
2019-04-11T21:33:22.221Z,2.97
2019-04-11T21:35:51.697Z,2.20
2019-04-11T21:38:21.330Z,2.33
2019-04-11T21:40:51.121Z,4.07
2019-04-11T21:43:20.724Z,6.70
2019-04-11T21:45:50.368Z,3.40
2019-04-11T21:48:19.755Z,2.43
2019-04-11T21:50:49.357Z,3.07
2019-04-11T21:53:18.859Z,3.00
2019-04-11T21:55:48.496Z,3.77
2019-04-11T21:58:20.130Z,3.67
2019-04-11T22:00:54.381Z,4.93
2019-04-11T22:03:24.844Z,2.77
2019-04-11T22:05:54.310Z,4.57
2019-04-11T22:08:23.840Z,3.97
2019-04-11T22:10:53.482Z,5.50
2019-04-11T22:13:23.051Z,6.40
2019-04-11T22:15:52.610Z,5.17
2019-04-11T22:18:22.377Z,8.20
2019-04-11T22:20:52.116Z,19.87
2019-04-11T22:23:21.526Z,16.73
2019-04-11T22:25:51.013Z,9.70
2019-04-11T22:28:22.046Z,8.20
2019-04-11T22:30:54.885Z,8.40
2019-04-11T22:33:28.335Z,6.73
2019-04-11T22:35:59.382Z,4.03
2019-04-11T22:38:30.974Z,7.47
2019-04-11T22:41:02.000Z,6.90
2019-04-11T22:43:31.665Z,9.67
2019-04-11T22:46:01.392Z,4.83
2019-04-11T22:48:31.130Z,3.63
2019-04-11T22:51:00.651Z,9.30
2019-04-11T22:53:30.091Z,11.57
2019-04-11T22:55:59.610Z,9.17
2019-04-11T22:58:29.223Z,9.23
2019-04-11T23:00:58.717Z,5.83
2019-04-11T23:03:37.516Z,6.27
2019-04-11T23:06:07.152Z,7.20
2019-04-11T23:08:36.592Z,6.33
2019-04-11T23:11:06.201Z,7.00
2019-04-11T23:13:35.969Z,6.83
2019-04-11T23:16:05.690Z,3.07
2019-04-11T23:18:35.220Z,3.13
2019-04-11T23:21:04.955Z,3.40
2019-04-11T23:23:34.704Z,4.73
2019-04-11T23:26:04.516Z,4.40
2019-04-11T23:28:34.308Z,3.43
2019-04-11T23:31:04.158Z,2.50
2019-04-11T23:33:33.955Z,2.30
2019-04-11T23:36:03.645Z,2.40
2019-04-11T23:38:33.429Z,3.40
2019-04-11T23:41:03.121Z,3.13
2019-04-11T23:43:32.717Z,3.33
2019-04-11T23:46:02.067Z,3.40
2019-04-11T23:48:31.504Z,2.70
2019-04-11T23:51:01.221Z,3.60
2019-04-11T23:53:30.708Z,2.50
2019-04-11T23:56:00.801Z,3.80
2019-04-11T23:58:32.049Z,2.77
